Time,TemperatureF,DewpointF,PressureIn,WindDirection,WindDirectionDegrees,WindSpeedMPH,WindSpeedGustMPH,Humidity,HourlyPrecipIn,Conditions,Clouds,dailyrainin,SoftwareType,DateUTC
2013-11-22 00:00:00,61.8,61.2,30.06,North,356,0.0,0.0,98,0.13,,,0.00,Wunderground v.1.15,2013-11-22 06:00:00,
2013-11-22 00:03:00,61.8,61.2,30.06,West,279,1.0,2.0,98,0.69,,---,0.00,VWS V14.01,2013-11-22 06:03:00,
2013-11-22 00:05:00,61.8,61.2,30.05,West,279,1.0,1.0,98,0.09,,,0.01,Wunderground v.1.15,2013-11-22 06:05:00,
2013-11-22 00:08:00,61.8,61.2,30.05,West,279,0.0,3.0,98,0.70,,---,0.01,VWS V14.01,2013-11-22 06:08:00,
2013-11-22 00:13:00,61.8,61.2,30.05,West,277,0.0,0.0,98,0.70,,---,0.01,VWS V14.01,2013-11-22 06:13:00,
2013-11-22 00:15:00,61.8,61.2,30.06,West,277,0.0,2.0,98,0.05,,,0.01,Wunderground v.1.15,2013-11-22 06:15:00,
2013-11-22 00:18:00,61.8,61.2,30.05,WNW,289,3.0,3.0,98,0.71,,---,0.02,VWS V14.01,2013-11-22 06:18:00,
2013-11-22 00:20:00,61.8,61.2,30.06,WNW,303,1.0,3.0,98,0.05,,,0.02,Wunderground v.1.15,2013-11-22 06:20:00,
2013-11-22 00:24:00,61.8,61.2,30.06,WNW,300,3.0,3.0,98,0.71,,---,0.02,VWS V14.01,2013-11-22 06:24:00,
2013-11-22 00:25:00,61.8,61.2,30.07,WNW,294,2.0,3.0,98,0.05,,,0.02,Wunderground v.1.15,2013-11-22 06:25:00,
2013-11-22 00:29:00,61.8,61.2,30.07,West,267,0.0,5.0,98,0.72,,---,0.03,VWS V14.01,2013-11-22 06:29:00,
2013-11-22 00:34:00,61.8,61.2,30.06,WNW,299,1.0,3.0,98,0.73,,---,0.04,VWS V14.01,2013-11-22 06:34:00,
2013-11-22 00:35:00,61.8,61.2,30.06,WNW,297,2.0,2.0,98,0.12,,,0.04,Wunderground v.1.15,2013-11-22 06:35:00,
2013-11-22 00:39:00,61.6,61.0,30.06,NNE,25,0.0,3.0,98,0.73,,---,0.04,VWS V14.01,2013-11-22 06:39:00,
2013-11-22 00:40:00,61.6,61.0,30.06,NNE,25,1.0,1.0,98,0.06,,,0.04,Wunderground v.1.15,2013-11-22 06:40:00,
2013-11-22 00:45:00,61.6,61.0,30.06,WNW,303,5.0,5.0,98,0.11,,---,0.05,VWS V14.01,2013-11-22 06:45:00,
2013-11-22 00:50:00,61.5,60.9,30.06,NW,304,0.0,0.0,98,0.07,,---,0.05,VWS V14.01,2013-11-22 06:50:00,
2013-11-22 00:55:00,61.5,60.9,30.06,WNW,296,1.0,5.0,98,0.05,,,0.05,Wunderground v.1.15,2013-11-22 06:55:00,
2013-11-22 01:00:00,61.5,60.9,30.07,West,280,2.0,5.0,98,0.00,,,0.05,Wunderground v.1.15,2013-11-22 07:00:00,
2013-11-22 01:05:00,61.5,60.9,30.06,WNW,283,3.0,5.0,98,0.00,,,0.05,Wunderground v.1.15,2013-11-22 07:05:00,
2013-11-22 01:10:00,61.3,60.7,30.07,West,272,2.0,7.0,98,0.00,,,0.06,Wunderground v.1.15,2013-11-22 07:10:00,
2013-11-22 01:15:00,60.7,59.8,30.08,WNW,282,4.0,7.0,97,0.00,,,0.06,Wunderground v.1.15,2013-11-22 07:15:00,
2013-11-22 01:20:00,60.4,59.5,30.08,West,262,4.0,7.0,97,0.00,,,0.06,Wunderground v.1.15,2013-11-22 07:20:00,
2013-11-22 01:21:00,60.4,59.5,30.08,WSW,258,2.0,8.0,97,0.04,,---,0.06,VWS V14.01,2013-11-22 07:21:00,
2013-11-22 01:25:00,59.6,58.7,30.09,West,265,4.0,7.0,97,0.00,,,0.06,Wunderground v.1.15,2013-11-22 07:25:00,
2013-11-22 01:26:00,59.2,58.3,30.09,West,279,6.0,8.0,97,0.04,,---,0.06,VWS V14.01,2013-11-22 07:26:00,
2013-11-22 01:30:00,59.2,58.3,30.09,West,263,4.0,4.0,97,0.00,,,0.06,Wunderground v.1.15,2013-11-22 07:30:00,
2013-11-22 01:31:00,58.4,57.6,30.10,WNW,283,11.0,11.0,97,0.03,,---,0.06,VWS V14.01,2013-11-22 07:31:00,
2013-11-22 01:35:00,57.8,56.7,30.10,WNW,289,5.0,5.0,96,0.00,,,0.07,Wunderground v.1.15,2013-11-22 07:35:00,
2013-11-22 01:36:00,57.6,56.5,30.10,WNW,289,0.0,11.0,96,0.04,,---,0.07,VWS V14.01,2013-11-22 07:36:00,
2013-11-22 01:40:00,57.2,56.1,30.10,West,269,4.0,7.0,96,0.00,,,0.07,Wunderground v.1.15,2013-11-22 07:40:00,
2013-11-22 01:41:00,56.7,55.6,30.10,WNW,286,6.0,7.0,96,0.03,,---,0.07,VWS V14.01,2013-11-22 07:41:00,
2013-11-22 01:45:00,56.3,55.2,30.10,WSW,253,5.0,7.0,96,0.00,,,0.07,Wunderground v.1.15,2013-11-22 07:45:00,
2013-11-22 01:47:00,55.7,54.6,30.10,West,276,8.0,10.0,96,0.04,,---,0.08,VWS V14.01,2013-11-22 07:47:00,
2013-11-22 01:50:00,55.3,54.2,30.10,West,273,5.0,5.0,96,0.04,,,0.08,Wunderground v.1.15,2013-11-22 07:50:00,
2013-11-22 01:52:00,55.0,53.9,30.10,West,276,8.0,8.0,96,0.03,,---,0.08,VWS V14.01,2013-11-22 07:52:00,
2013-11-22 01:55:00,54.7,53.6,30.10,West,260,5.0,6.0,96,0.04,,,0.08,Wunderground v.1.15,2013-11-22 07:55:00,
2013-11-22 01:57:00,54.5,53.4,30.10,WNW,283,7.0,10.0,96,0.03,,---,0.08,VWS V14.01,2013-11-22 07:57:00,
2013-11-22 02:02:00,54.2,53.1,30.11,WNW,283,3.0,8.0,96,0.03,,---,0.08,VWS V14.01,2013-11-22 08:02:00,
2013-11-22 02:05:00,53.8,52.7,30.11,WNW,282,5.0,5.0,96,0.00,,,0.08,Wunderground v.1.15,2013-11-22 08:05:00,
2013-11-22 02:07:00,53.3,52.2,30.11,NW,311,3.0,11.0,96,0.03,,---,0.08,VWS V14.01,2013-11-22 08:07:00,
2013-11-22 02:10:00,53.2,52.1,30.12,WNW,291,6.0,6.0,96,0.00,,,0.09,Wunderground v.1.15,2013-11-22 08:10:00,
2013-11-22 02:12:00,53.2,52.1,30.12,West,275,8.0,8.0,96,0.03,,---,0.09,VWS V14.01,2013-11-22 08:12:00,
2013-11-22 02:15:00,53.2,52.1,30.12,West,260,6.0,6.0,96,0.00,,,0.09,Wunderground v.1.15,2013-11-22 08:15:00,
2013-11-22 02:17:00,52.3,51.2,30.12,West,272,3.0,14.0,96,0.03,,---,0.09,VWS V14.01,2013-11-22 08:17:00,
2013-11-22 02:22:00,51.7,50.6,30.12,West,275,6.0,12.0,96,0.03,,---,0.09,VWS V14.01,2013-11-22 08:22:00,
2013-11-22 02:25:00,51.6,50.5,30.12,West,267,8.0,8.0,96,0.00,,,0.09,Wunderground v.1.15,2013-11-22 08:25:00,
2013-11-22 02:28:00,51.1,50.0,30.12,WNW,289,3.0,14.0,96,0.03,,---,0.09,VWS V14.01,2013-11-22 08:28:00,
2013-11-22 02:30:00,51.0,49.9,30.12,WNW,287,8.0,8.0,96,0.00,,,0.09,Wunderground v.1.15,2013-11-22 08:30:00,
2013-11-22 02:33:00,50.7,49.6,30.12,WNW,291,6.0,8.0,96,0.03,,---,0.09,VWS V14.01,2013-11-22 08:33:00,
2013-11-22 02:35:00,50.7,49.6,30.12,West,273,6.0,8.0,96,0.00,,,0.09,Wunderground v.1.15,2013-11-22 08:35:00,
2013-11-22 02:39:00,50.4,49.3,30.11,WSW,242,8.0,13.0,96,0.03,,---,0.09,VWS V14.01,2013-11-22 08:39:00,
2013-11-22 02:40:00,50.4,49.3,30.11,West,263,6.0,6.0,96,0.00,,,0.09,Wunderground v.1.15,2013-11-22 08:40:00,
2013-11-22 02:44:00,49.9,48.8,30.11,West,273,6.0,17.0,96,0.02,,---,0.09,VWS V14.01,2013-11-22 08:44:00,
2013-11-22 02:49:00,49.4,48.3,30.12,West,280,6.0,17.0,96,0.02,,---,0.09,VWS V14.01,2013-11-22 08:49:00,
2013-11-22 02:50:00,49.2,48.1,30.12,WNW,290,8.0,8.0,96,0.00,,,0.09,Wunderground v.1.15,2013-11-22 08:50:00,
2013-11-22 02:54:00,48.9,47.8,30.12,WNW,282,7.0,12.0,96,0.01,,---,0.09,VWS V14.01,2013-11-22 08:54:00,
2013-11-22 02:55:00,48.9,47.8,30.12,West,269,7.0,8.0,96,0.00,,,0.09,Wunderground v.1.15,2013-11-22 08:55:00,
2013-11-22 02:59:00,48.6,47.5,30.12,West,273,5.0,12.0,96,0.01,,---,0.09,VWS V14.01,2013-11-22 08:59:00,
2013-11-22 03:04:00,48.3,47.2,30.13,NW,307,1.0,10.0,96,0.01,,---,0.09,VWS V14.01,2013-11-22 09:04:00,
2013-11-22 03:05:00,48.3,47.2,30.13,West,275,4.0,10.0,96,0.00,,,0.09,Wunderground v.1.15,2013-11-22 09:05:00,
2013-11-22 03:09:00,48.0,46.9,30.14,West,276,7.0,10.0,96,0.01,,---,0.09,VWS V14.01,2013-11-22 09:09:00,
2013-11-22 03:10:00,48.0,46.9,30.14,West,273,5.0,6.0,96,0.00,,,0.09,Wunderground v.1.15,2013-11-22 09:10:00,
2013-11-22 03:14:00,47.9,46.8,30.14,West,277,6.0,11.0,96,0.00,,---,0.09,VWS V14.01,2013-11-22 09:14:00,
2013-11-22 03:19:00,47.6,46.5,30.15,West,270,12.0,12.0,96,0.00,,---,0.09,VWS V14.01,2013-11-22 09:19:00,
2013-11-22 03:20:00,47.6,46.5,30.15,WSW,258,7.0,7.0,96,0.00,,,0.09,Wunderground v.1.15,2013-11-22 09:20:00,
2013-11-22 03:24:00,47.4,46.3,30.15,West,272,5.0,10.0,96,0.00,,---,0.09,VWS V14.01,2013-11-22 09:24:00,
2013-11-22 03:25:00,47.3,46.2,30.15,West,263,7.0,13.0,96,0.00,,,0.09,Wunderground v.1.15,2013-11-22 09:25:00,
2013-11-22 03:30:00,47.1,46.0,30.15,WNW,286,6.0,13.0,96,0.00,,---,0.09,VWS V14.01,2013-11-22 09:30:00,
2013-11-22 03:35:00,47.0,45.9,30.15,West,276,3.0,8.0,96,0.00,,---,0.09,VWS V14.01,2013-11-22 09:35:00,
2013-11-22 03:40:00,46.8,45.7,30.15,WNW,283,3.0,8.0,96,0.00,,---,0.09,VWS V14.01,2013-11-22 09:40:00,
2013-11-22 03:45:00,46.7,45.6,30.15,WNW,283,2.0,10.0,96,0.00,,---,0.09,VWS V14.01,2013-11-22 09:45:00,
2013-11-22 03:50:00,46.4,45.3,30.15,WNW,300,5.0,7.0,96,0.00,,---,0.09,VWS V14.01,2013-11-22 09:50:00,
2013-11-22 03:55:00,46.2,45.1,30.15,WNW,300,5.0,5.0,96,0.00,,,0.09,Wunderground v.1.15,2013-11-22 09:55:00,
2013-11-22 04:00:00,46.1,45.0,30.15,West,272,5.0,5.0,96,0.00,,,0.09,Wunderground v.1.15,2013-11-22 10:00:00,
2013-11-22 04:05:00,46.1,45.0,30.16,West,276,4.0,5.0,96,0.00,,,0.09,Wunderground v.1.15,2013-11-22 10:05:00,
2013-11-22 04:10:00,46.0,44.9,30.16,WNW,283,3.0,3.0,96,0.00,,---,0.09,VWS V14.01,2013-11-22 10:10:00,
2013-11-22 04:15:00,46.0,44.9,30.16,WNW,282,3.0,12.0,96,0.00,,,0.09,Wunderground v.1.15,2013-11-22 10:15:00,
2013-11-22 04:16:00,46.0,44.7,30.16,West,277,6.0,16.0,95,0.00,,---,0.09,VWS V14.01,2013-11-22 10:16:00,
2013-11-22 04:20:00,45.8,44.4,30.17,WNW,301,4.0,5.0,95,0.00,,,0.09,Wunderground v.1.15,2013-11-22 10:20:00,
2013-11-22 04:21:00,45.8,44.5,30.17,West,273,5.0,5.0,95,0.00,,---,0.09,VWS V14.01,2013-11-22 10:21:00,
2013-11-22 04:25:00,45.8,44.4,30.17,WNW,293,5.0,5.0,95,0.00,,,0.09,Wunderground v.1.15,2013-11-22 10:25:00,
2013-11-22 04:26:00,45.8,44.5,30.17,WNW,291,1.0,10.0,95,0.00,,---,0.09,VWS V14.01,2013-11-22 10:26:00,
2013-11-22 04:30:00,45.7,44.4,30.18,West,280,4.0,7.0,95,0.00,,,0.09,Wunderground v.1.15,2013-11-22 10:30:00,
2013-11-22 04:31:00,45.7,44.3,30.18,West,272,12.0,12.0,95,0.00,,---,0.09,VWS V14.01,2013-11-22 10:31:00,
2013-11-22 04:35:00,45.5,44.2,30.18,West,263,4.0,7.0,95,0.00,,,0.09,Wunderground v.1.15,2013-11-22 10:35:00,
2013-11-22 04:36:00,45.5,44.2,30.18,West,277,3.0,12.0,95,0.00,,---,0.09,VWS V14.01,2013-11-22 10:36:00,
2013-11-22 04:40:00,45.5,43.9,30.19,West,262,5.0,5.0,94,0.00,,,0.09,Wunderground v.1.15,2013-11-22 10:40:00,
2013-11-22 04:42:00,45.5,43.9,30.19,West,270,7.0,7.0,94,0.00,,---,0.09,VWS V14.01,2013-11-22 10:42:00,
2013-11-22 04:45:00,45.4,43.8,30.19,WNW,299,5.0,5.0,94,0.00,,,0.09,Wunderground v.1.15,2013-11-22 10:45:00,
2013-11-22 04:47:00,45.4,43.8,30.19,WNW,297,3.0,7.0,94,0.00,,---,0.09,VWS V14.01,2013-11-22 10:47:00,
2013-11-22 04:52:00,45.2,43.6,30.19,West,277,3.0,7.0,94,0.00,,---,0.09,VWS V14.01,2013-11-22 10:52:00,
2013-11-22 04:55:00,45.2,43.6,30.19,West,269,4.0,6.0,94,0.00,,,0.09,Wunderground v.1.15,2013-11-22 10:55:00,
2013-11-22 04:57:00,45.2,43.6,30.19,West,262,6.0,7.0,94,0.00,,---,0.09,VWS V14.01,2013-11-22 10:57:00,
2013-11-22 05:03:00,45.1,43.5,30.19,WNW,294,3.0,3.0,94,0.00,,---,0.09,VWS V14.01,2013-11-22 11:03:00,
2013-11-22 05:05:00,44.9,43.3,30.19,West,267,4.0,5.0,94,0.00,,,0.09,Wunderground v.1.15,2013-11-22 11:05:00,
2013-11-22 05:08:00,44.9,43.3,30.19,NW,313,6.0,7.0,94,0.00,,---,0.09,VWS V14.01,2013-11-22 11:08:00,
2013-11-22 05:10:00,44.9,43.3,30.19,NW,306,4.0,4.0,94,0.00,,,0.09,Wunderground v.1.15,2013-11-22 11:10:00,
2013-11-22 05:13:00,44.6,42.7,30.20,West,276,3.0,8.0,93,0.00,,---,0.09,VWS V14.01,2013-11-22 11:13:00,
2013-11-22 05:18:00,44.6,42.7,30.20,West,279,2.0,8.0,93,0.00,,---,0.09,VWS V14.01,2013-11-22 11:18:00,
2013-11-22 05:20:00,44.6,42.7,30.20,WNW,290,3.0,3.0,93,0.00,,,0.09,Wunderground v.1.15,2013-11-22 11:20:00,
2013-11-22 05:23:00,44.6,42.7,30.20,WNW,287,2.0,5.0,93,0.00,,---,0.09,VWS V14.01,2013-11-22 11:23:00,
2013-11-22 05:25:00,44.6,42.7,30.20,West,263,3.0,7.0,93,0.00,,,0.09,Wunderground v.1.15,2013-11-22 11:25:00,
2013-11-22 05:28:00,44.5,42.6,30.20,WNW,293,5.0,7.0,93,0.00,,---,0.09,VWS V14.01,2013-11-22 11:28:00,
2013-11-22 05:30:00,44.5,42.6,30.20,West,279,3.0,3.0,93,0.00,,,0.09,Wunderground v.1.15,2013-11-22 11:30:00,
2013-11-22 05:33:00,44.6,42.7,30.21,WNW,296,3.0,6.0,93,0.00,,---,0.09,VWS V14.01,2013-11-22 11:33:00,
2013-11-22 05:35:00,44.5,42.6,30.21,West,259,4.0,7.0,93,0.00,,,0.09,Wunderground v.1.15,2013-11-22 11:35:00,
2013-11-22 05:38:00,44.5,42.3,30.21,NW,310,5.0,11.0,92,0.00,,---,0.09,VWS V14.01,2013-11-22 11:38:00,
2013-11-22 05:40:00,44.5,42.3,30.22,West,263,6.0,7.0,92,0.00,,,0.09,Wunderground v.1.15,2013-11-22 11:40:00,
2013-11-22 05:43:00,44.5,42.3,30.21,West,269,6.0,10.0,92,0.00,,---,0.09,VWS V14.01,2013-11-22 11:43:00,
2013-11-22 05:45:00,44.5,42.3,30.21,West,275,5.0,7.0,92,0.00,,,0.09,Wunderground v.1.15,2013-11-22 11:45:00,
2013-11-22 05:49:00,44.5,42.3,30.22,West,273,3.0,10.0,92,0.00,,---,0.09,VWS V14.01,2013-11-22 11:49:00,
2013-11-22 05:50:00,44.5,42.3,30.22,West,263,3.0,3.0,92,0.00,,,0.09,Wunderground v.1.15,2013-11-22 11:50:00,
2013-11-22 05:54:00,44.3,42.1,30.22,WNW,303,5.0,7.0,92,0.00,,---,0.09,VWS V14.01,2013-11-22 11:54:00,
2013-11-22 05:55:00,44.3,42.1,30.22,NW,304,3.0,3.0,92,0.00,,,0.09,Wunderground v.1.15,2013-11-22 11:55:00,
2013-11-22 05:59:00,44.3,42.1,30.22,NW,304,5.0,8.0,92,0.00,,---,0.09,VWS V14.01,2013-11-22 11:59:00,
2013-11-22 06:00:00,44.2,42.0,30.22,West,275,3.0,6.0,92,0.00,,,0.09,Wunderground v.1.15,2013-11-22 12:00:00,
2013-11-22 06:05:00,44.2,42.0,30.22,West,275,5.0,7.0,92,0.00,,---,0.09,VWS V14.01,2013-11-22 12:05:00,
2013-11-22 06:10:00,44.2,42.0,30.22,West,277,3.0,3.0,92,0.00,,,0.09,Wunderground v.1.15,2013-11-22 12:10:00,
2013-11-22 06:15:00,44.2,42.0,30.22,West,276,3.0,6.0,92,0.00,,,0.09,Wunderground v.1.15,2013-11-22 12:15:00,
2013-11-22 06:20:00,44.2,42.0,30.23,WNW,289,3.0,3.0,92,0.00,,,0.09,Wunderground v.1.15,2013-11-22 12:20:00,
2013-11-22 06:21:00,44.2,42.0,30.23,WNW,291,5.0,5.0,92,0.00,,---,0.09,VWS V14.01,2013-11-22 12:21:00,
2013-11-22 06:25:00,44.1,41.9,30.23,WNW,284,3.0,3.0,92,0.00,,,0.09,Wunderground v.1.15,2013-11-22 12:25:00,
2013-11-22 06:26:00,44.1,41.9,30.23,WNW,287,1.0,6.0,92,0.00,,---,0.09,VWS V14.01,2013-11-22 12:26:00,
2013-11-22 06:30:00,44.1,41.9,30.24,WNW,282,2.0,3.0,92,0.00,,,0.09,Wunderground v.1.15,2013-11-22 12:30:00,
2013-11-22 06:31:00,44.1,41.9,30.24,NW,306,3.0,3.0,92,0.00,,---,0.09,VWS V14.01,2013-11-22 12:31:00,
2013-11-22 06:36:00,44.1,41.9,30.24,WNW,293,0.0,3.0,92,0.00,,---,0.09,VWS V14.01,2013-11-22 12:36:00,
2013-11-22 06:40:00,44.1,41.9,30.24,West,269,2.0,2.0,92,0.00,,,0.09,Wunderground v.1.15,2013-11-22 12:40:00,
2013-11-22 06:42:00,44.1,41.9,30.24,West,269,3.0,3.0,92,0.00,,---,0.09,VWS V14.01,2013-11-22 12:42:00,
2013-11-22 06:47:00,43.9,41.5,30.25,West,262,3.0,7.0,91,0.00,,---,0.09,VWS V14.01,2013-11-22 12:47:00,
2013-11-22 06:50:00,43.8,41.3,30.25,WNW,291,4.0,5.0,91,0.00,,,0.09,Wunderground v.1.15,2013-11-22 12:50:00,
2013-11-22 06:52:00,43.8,41.1,30.25,WNW,294,6.0,8.0,90,0.00,,---,0.09,VWS V14.01,2013-11-22 12:52:00,
2013-11-22 06:55:00,43.6,40.9,30.25,WNW,289,5.0,5.0,90,0.00,,,0.09,Wunderground v.1.15,2013-11-22 12:55:00,
2013-11-22 06:57:00,43.6,40.9,30.25,WNW,291,0.0,8.0,90,0.00,,---,0.09,VWS V14.01,2013-11-22 12:57:00,
2013-11-22 07:00:00,43.8,41.1,30.26,NW,304,4.0,4.0,90,0.00,,,0.09,Wunderground v.1.15,2013-11-22 13:00:00,
2013-11-22 07:02:00,43.8,41.1,30.26,West,266,5.0,5.0,90,0.00,,---,0.09,VWS V14.01,2013-11-22 13:02:00,
2013-11-22 07:05:00,43.8,41.1,30.27,WNW,293,3.0,4.0,90,0.00,,,0.09,Wunderground v.1.15,2013-11-22 13:05:00,
2013-11-22 07:07:00,43.8,41.1,30.27,WNW,293,2.0,6.0,90,0.00,,---,0.09,VWS V14.01,2013-11-22 13:07:00,
2013-11-22 07:10:00,43.8,41.1,30.27,WNW,283,4.0,4.0,90,0.00,,,0.09,Wunderground v.1.15,2013-11-22 13:10:00,
2013-11-22 07:12:00,43.8,41.1,30.27,WNW,297,3.0,5.0,90,0.00,,---,0.09,VWS V14.01,2013-11-22 13:12:00,
2013-11-22 07:15:00,43.8,41.1,30.27,WNW,297,3.0,4.0,90,0.00,,,0.09,Wunderground v.1.15,2013-11-22 13:15:00,
2013-11-22 07:18:00,43.8,41.1,30.28,West,275,1.0,6.0,90,0.00,,---,0.09,VWS V14.01,2013-11-22 13:18:00,
2013-11-22 07:20:00,43.8,41.1,30.28,West,276,2.0,2.0,90,0.00,,,0.09,Wunderground v.1.15,2013-11-22 13:20:00,
2013-11-22 07:23:00,43.8,40.8,30.28,WNW,294,2.0,8.0,89,0.00,,---,0.09,VWS V14.01,2013-11-22 13:23:00,
2013-11-22 07:25:00,43.8,41.1,30.28,WNW,303,3.0,3.0,90,0.00,,,0.09,Wunderground v.1.15,2013-11-22 13:25:00,
2013-11-22 07:28:00,43.8,41.1,30.28,NW,308,1.0,8.0,90,0.00,,---,0.09,VWS V14.01,2013-11-22 13:28:00,
2013-11-22 07:30:00,43.8,41.1,30.28,NW,308,4.0,5.0,90,0.00,,,0.09,Wunderground v.1.15,2013-11-22 13:30:00,
2013-11-22 07:34:00,43.6,40.9,30.29,West,275,2.0,7.0,90,0.00,,---,0.09,VWS V14.01,2013-11-22 13:34:00,
2013-11-22 07:35:00,43.6,41.1,30.29,WNW,299,3.0,5.0,91,0.00,,,0.09,Wunderground v.1.15,2013-11-22 13:35:00,
2013-11-22 07:39:00,43.5,41.0,30.29,West,270,2.0,7.0,91,0.00,,---,0.09,VWS V14.01,2013-11-22 13:39:00,
2013-11-22 07:40:00,43.5,41.0,30.29,West,272,3.0,3.0,91,0.00,,,0.09,Wunderground v.1.15,2013-11-22 13:40:00,
2013-11-22 07:44:00,43.3,40.8,30.29,West,270,3.0,8.0,91,0.00,,---,0.09,VWS V14.01,2013-11-22 13:44:00,
2013-11-22 07:45:00,43.3,40.8,30.29,West,270,4.0,4.0,91,0.00,,,0.09,Wunderground v.1.15,2013-11-22 13:45:00,
2013-11-22 07:50:00,43.3,40.8,30.29,WNW,284,4.0,4.0,91,0.00,,,0.09,Wunderground v.1.15,2013-11-22 13:50:00,
2013-11-22 07:55:00,43.2,41.3,30.29,NW,307,3.0,4.0,93,0.00,,,0.09,Wunderground v.1.15,2013-11-22 13:55:00,
2013-11-22 08:00:00,43.1,41.2,30.29,WNW,287,2.0,2.0,93,0.00,,,0.09,Wunderground v.1.15,2013-11-22 14:00:00,
2013-11-22 08:05:00,43.1,41.2,30.29,West,275,3.0,5.0,93,0.00,,,0.09,Wunderground v.1.15,2013-11-22 14:05:00,
2013-11-22 08:10:00,42.9,41.3,30.30,WNW,282,3.0,3.0,94,0.00,,,0.09,Wunderground v.1.15,2013-11-22 14:10:00,
2013-11-22 08:11:00,42.9,41.3,30.30,WNW,282,2.0,2.0,94,0.00,,---,0.09,VWS V14.01,2013-11-22 14:11:00,
2013-11-22 08:15:00,42.8,41.2,30.29,WNW,282,3.0,3.0,94,0.00,,,0.09,Wunderground v.1.15,2013-11-22 14:15:00,
2013-11-22 08:16:00,42.8,41.2,30.29,WNW,282,2.0,5.0,94,0.00,,---,0.09,VWS V14.01,2013-11-22 14:16:00,
2013-11-22 08:20:00,42.8,41.2,30.30,WNW,284,2.0,6.0,94,0.00,,,0.09,Wunderground v.1.15,2013-11-22 14:20:00,
2013-11-22 08:21:00,42.8,41.2,30.30,WNW,284,6.0,6.0,94,0.00,,---,0.09,VWS V14.01,2013-11-22 14:21:00,
2013-11-22 08:25:00,42.8,41.5,30.30,WNW,286,3.0,6.0,95,0.00,,,0.09,Wunderground v.1.15,2013-11-22 14:25:00,
2013-11-22 08:26:00,42.8,41.5,30.30,West,265,6.0,6.0,95,0.00,,---,0.09,VWS V14.01,2013-11-22 14:26:00,
2013-11-22 08:30:00,42.6,41.3,30.30,West,270,4.0,5.0,95,0.00,,,0.09,Wunderground v.1.15,2013-11-22 14:30:00,
2013-11-22 08:31:00,42.6,41.3,30.30,West,270,5.0,5.0,95,0.00,,---,0.09,VWS V14.01,2013-11-22 14:31:00,
2013-11-22 08:35:00,42.3,41.0,30.30,West,272,5.0,7.0,95,0.00,,,0.10,Wunderground v.1.15,2013-11-22 14:35:00,
2013-11-22 08:36:00,42.3,41.0,30.30,WNW,282,5.0,10.0,95,0.01,,---,0.10,VWS V14.01,2013-11-22 14:36:00,
2013-11-22 08:40:00,42.3,41.0,30.31,West,262,6.0,6.0,95,0.00,,,0.10,Wunderground v.1.15,2013-11-22 14:40:00,
2013-11-22 08:41:00,42.3,41.0,30.31,West,262,5.0,5.0,95,0.01,,---,0.10,VWS V14.01,2013-11-22 14:41:00,
2013-11-22 08:45:00,42.2,40.9,30.31,WNW,284,5.0,6.0,95,0.00,,,0.10,Wunderground v.1.15,2013-11-22 14:45:00,
2013-11-22 08:46:00,42.2,40.9,30.31,West,270,7.0,8.0,95,0.01,,---,0.10,VWS V14.01,2013-11-22 14:46:00,
2013-11-22 08:50:00,42.2,40.9,30.31,NW,311,4.0,6.0,95,0.00,,,0.10,Wunderground v.1.15,2013-11-22 14:50:00,
2013-11-22 08:51:00,42.2,40.9,30.31,NW,315,3.0,6.0,95,0.01,,---,0.10,VWS V14.01,2013-11-22 14:51:00,
2013-11-22 08:55:00,42.2,40.9,30.31,WNW,286,3.0,6.0,95,0.00,,,0.10,Wunderground v.1.15,2013-11-22 14:55:00,
2013-11-22 08:57:00,42.2,40.9,30.31,West,279,2.0,6.0,95,0.01,,---,0.10,VWS V14.01,2013-11-22 14:57:00,
2013-11-22 09:00:00,42.2,40.9,30.31,WNW,282,4.0,6.0,95,0.00,,,0.10,Wunderground v.1.15,2013-11-22 15:00:00,
2013-11-22 09:02:00,42.2,40.9,30.31,WNW,289,2.0,6.0,95,0.01,,---,0.10,VWS V14.01,2013-11-22 15:02:00,
2013-11-22 09:05:00,42.2,41.1,30.31,WNW,293,4.0,6.0,96,0.00,,,0.10,Wunderground v.1.15,2013-11-22 15:05:00,
2013-11-22 09:07:00,42.2,41.1,30.31,WNW,286,0.0,6.0,96,0.01,,---,0.10,VWS V14.01,2013-11-22 15:07:00,
2013-11-22 09:10:00,42.2,41.1,30.31,West,267,3.0,5.0,96,0.00,,,0.10,Wunderground v.1.15,2013-11-22 15:10:00,
2013-11-22 09:12:00,42.2,41.1,30.31,West,263,3.0,5.0,96,0.01,,---,0.10,VWS V14.01,2013-11-22 15:12:00,
2013-11-22 09:15:00,42.1,41.0,30.31,WNW,291,4.0,5.0,96,0.00,,,0.10,Wunderground v.1.15,2013-11-22 15:15:00,
2013-11-22 09:17:00,42.2,41.1,30.31,WNW,282,0.0,8.0,96,0.01,,---,0.10,VWS V14.01,2013-11-22 15:17:00,
2013-11-22 09:20:00,42.2,41.1,30.30,West,262,3.0,3.0,96,0.00,,,0.10,Wunderground v.1.15,2013-11-22 15:20:00,
2013-11-22 09:23:00,42.2,41.1,30.30,West,262,1.0,1.0,96,0.01,,---,0.10,VWS V14.01,2013-11-22 15:23:00,
2013-11-22 09:25:00,42.2,41.1,30.30,WNW,301,2.0,3.0,96,0.00,,,0.10,Wunderground v.1.15,2013-11-22 15:25:00,
2013-11-22 09:28:00,42.6,41.5,30.31,West,280,1.0,2.0,96,0.01,,---,0.10,VWS V14.01,2013-11-22 15:28:00,
2013-11-22 09:30:00,42.8,41.7,30.31,West,280,1.0,1.0,96,0.00,,,0.10,Wunderground v.1.15,2013-11-22 15:30:00,
2013-11-22 09:33:00,42.9,41.8,30.31,West,276,2.0,7.0,96,0.01,,---,0.10,VWS V14.01,2013-11-22 15:33:00,
2013-11-22 09:35:00,42.9,41.8,30.31,West,275,2.0,2.0,96,0.00,,,0.10,Wunderground v.1.15,2013-11-22 15:35:00,
2013-11-22 09:38:00,42.9,41.8,30.31,West,263,2.0,7.0,96,0.01,,---,0.10,VWS V14.01,2013-11-22 15:38:00,
2013-11-22 09:40:00,42.9,41.8,30.31,West,269,3.0,3.0,96,0.00,,,0.10,Wunderground v.1.15,2013-11-22 15:40:00,
2013-11-22 09:44:00,42.9,41.6,30.32,West,266,6.0,6.0,95,0.00,,---,0.10,VWS V14.01,2013-11-22 15:44:00,
2013-11-22 09:45:00,42.9,41.6,30.32,West,266,4.0,4.0,95,0.00,,,0.10,Wunderground v.1.15,2013-11-22 15:45:00,
2013-11-22 09:49:00,42.9,41.6,30.32,WNW,282,3.0,6.0,95,0.00,,---,0.10,VWS V14.01,2013-11-22 15:49:00,
2013-11-22 09:50:00,42.9,41.6,30.32,West,269,4.0,4.0,95,0.00,,,0.10,Wunderground v.1.15,2013-11-22 15:50:00,
2013-11-22 09:54:00,43.1,41.8,30.31,West,269,0.0,5.0,95,0.00,,---,0.10,VWS V14.01,2013-11-22 15:54:00,
2013-11-22 09:59:00,43.3,42.2,30.31,WNW,290,5.0,5.0,96,0.00,,---,0.10,VWS V14.01,2013-11-22 15:59:00,
2013-11-22 10:00:00,43.3,42.0,30.31,NW,318,1.0,1.0,95,0.00,,,0.10,Wunderground v.1.15,2013-11-22 16:00:00,
2013-11-22 10:04:00,43.3,42.0,30.31,West,269,1.0,1.0,95,0.00,,---,0.10,VWS V14.01,2013-11-22 16:04:00,
2013-11-22 10:05:00,43.3,42.0,30.31,West,269,2.0,2.0,95,0.00,,,0.10,Wunderground v.1.15,2013-11-22 16:05:00,
2013-11-22 10:09:00,43.3,42.0,30.32,NW,304,3.0,3.0,95,0.00,,---,0.10,VWS V14.01,2013-11-22 16:09:00,
2013-11-22 10:10:00,43.3,42.0,30.32,NW,304,3.0,3.0,95,0.00,,,0.10,Wunderground v.1.15,2013-11-22 16:10:00,
2013-11-22 10:15:00,43.6,42.3,30.32,NNW,331,2.0,3.0,95,0.00,,---,0.10,VWS V14.01,2013-11-22 16:15:00,
2013-11-22 10:20:00,43.6,41.7,30.32,WNW,296,1.0,1.0,93,0.00,,---,0.10,VWS V14.01,2013-11-22 16:20:00,
2013-11-22 10:25:00,43.8,41.9,30.32,WNW,299,2.0,2.0,93,0.00,,,0.10,Wunderground v.1.15,2013-11-22 16:25:00,
2013-11-22 10:30:00,43.8,41.9,30.31,NW,311,5.0,5.0,93,0.00,,,0.10,Wunderground v.1.15,2013-11-22 16:30:00,
2013-11-22 10:35:00,43.8,41.9,30.32,West,276,0.0,5.0,93,0.00,,,0.10,Wunderground v.1.15,2013-11-22 16:35:00,
2013-11-22 10:40:00,43.9,41.2,30.32,West,277,1.0,5.0,90,0.00,,,0.10,Wunderground v.1.15,2013-11-22 16:40:00,
2013-11-22 10:45:00,43.9,41.2,30.32,NNE,23,2.0,5.0,90,0.00,,,0.10,Wunderground v.1.15,2013-11-22 16:45:00,
2013-11-22 10:46:00,43.9,41.2,30.32,NNE,23,0.0,6.0,90,0.00,,---,0.10,VWS V14.01,2013-11-22 16:46:00,
2013-11-22 10:50:00,44.2,41.7,30.31,WNW,290,2.0,2.0,91,0.00,,,0.10,Wunderground v.1.15,2013-11-22 16:50:00,
2013-11-22 10:51:00,44.2,41.7,30.31,WNW,290,1.0,2.0,91,0.00,,---,0.10,VWS V14.01,2013-11-22 16:51:00,
2013-11-22 10:55:00,44.3,41.6,30.31,WNW,299,2.0,3.0,90,0.00,,,0.10,Wunderground v.1.15,2013-11-22 16:55:00,
2013-11-22 10:56:00,44.5,41.5,30.31,WNW,293,2.0,6.0,89,0.00,,---,0.10,VWS V14.01,2013-11-22 16:56:00,
2013-11-22 11:00:00,44.6,41.6,30.31,WNW,293,2.0,2.0,89,0.00,,,0.10,Wunderground v.1.15,2013-11-22 17:00:00,
2013-11-22 11:01:00,44.6,41.6,30.31,WNW,294,2.0,2.0,89,0.00,,---,0.10,VWS V14.01,2013-11-22 17:01:00,
2013-11-22 11:05:00,44.6,41.6,30.31,West,262,2.0,2.0,89,0.00,,,0.10,Wunderground v.1.15,2013-11-22 17:05:00,
2013-11-22 11:07:00,44.8,41.8,30.31,West,263,1.0,6.0,89,0.00,,---,0.10,VWS V14.01,2013-11-22 17:07:00,
2013-11-22 11:10:00,44.8,41.8,30.31,West,259,2.0,2.0,89,0.00,,,0.10,Wunderground v.1.15,2013-11-22 17:10:00,
2013-11-22 11:12:00,44.8,41.8,30.31,West,266,0.0,6.0,89,0.00,,---,0.10,VWS V14.01,2013-11-22 17:12:00,
2013-11-22 11:15:00,44.8,41.2,30.31,West,280,2.0,2.0,87,0.00,,,0.10,Wunderground v.1.15,2013-11-22 17:15:00,
2013-11-22 11:17:00,44.8,41.2,30.31,WNW,282,5.0,7.0,87,0.00,,---,0.10,VWS V14.01,2013-11-22 17:17:00,
2013-11-22 11:20:00,44.9,41.3,30.31,WNW,283,2.0,2.0,87,0.00,,,0.10,Wunderground v.1.15,2013-11-22 17:20:00,
2013-11-22 11:22:00,44.9,41.3,30.31,WNW,283,0.0,0.0,87,0.00,,---,0.10,VWS V14.01,2013-11-22 17:22:00,
2013-11-22 11:25:00,44.9,41.3,30.30,WNW,283,1.0,2.0,87,0.00,,,0.10,Wunderground v.1.15,2013-11-22 17:25:00,
2013-11-22 11:27:00,45.1,41.5,30.30,West,277,1.0,1.0,87,0.00,,---,0.10,VWS V14.01,2013-11-22 17:27:00,
2013-11-22 11:30:00,45.1,41.5,30.30,West,277,1.0,1.0,87,0.00,,,0.10,Wunderground v.1.15,2013-11-22 17:30:00,
2013-11-22 11:33:00,45.1,41.5,30.30,West,277,1.0,1.0,87,0.00,,---,0.10,VWS V14.01,2013-11-22 17:33:00,
2013-11-22 11:35:00,45.2,41.6,30.30,North,9,2.0,2.0,87,0.00,,,0.10,Wunderground v.1.15,2013-11-22 17:35:00,
2013-11-22 11:38:00,45.2,41.6,30.30,NW,317,2.0,2.0,87,0.00,,---,0.10,VWS V14.01,2013-11-22 17:38:00,
2013-11-22 11:40:00,45.2,41.6,30.30,NW,317,2.0,2.0,87,0.00,,,0.10,Wunderground v.1.15,2013-11-22 17:40:00,
2013-11-22 11:43:00,45.2,41.6,30.30,West,273,1.0,6.0,87,0.00,,---,0.10,VWS V14.01,2013-11-22 17:43:00,
2013-11-22 11:45:00,45.2,41.9,30.29,NW,307,0.0,2.0,88,0.00,,,0.10,Wunderground v.1.15,2013-11-22 17:45:00,
2013-11-22 11:48:00,45.2,41.6,30.30,West,275,5.0,6.0,87,0.00,,---,0.10,VWS V14.01,2013-11-22 17:48:00,
2013-11-22 11:50:00,45.2,41.6,30.30,WNW,287,4.0,4.0,87,0.00,,,0.10,Wunderground v.1.15,2013-11-22 17:50:00,
2013-11-22 11:53:00,45.1,41.8,30.30,West,260,0.0,6.0,88,0.00,,---,0.10,VWS V14.01,2013-11-22 17:53:00,
2013-11-22 11:58:00,45.4,42.1,30.29,West,260,0.0,6.0,88,0.00,,---,0.10,VWS V14.01,2013-11-22 17:58:00,
2013-11-22 12:00:00,45.4,42.1,30.29,NW,308,1.0,5.0,88,0.00,,,0.10,Wunderground v.1.15,2013-11-22 18:00:00,
2013-11-22 12:03:00,45.4,42.1,30.30,NW,304,0.0,6.0,88,0.00,,---,0.10,VWS V14.01,2013-11-22 18:03:00,
2013-11-22 12:05:00,45.2,41.9,30.30,WNW,294,1.0,5.0,88,0.00,,,0.10,Wunderground v.1.15,2013-11-22 18:05:00,
2013-11-22 12:09:00,45.2,41.6,30.29,WNW,291,0.0,7.0,87,0.00,,---,0.10,VWS V14.01,2013-11-22 18:09:00,
2013-11-22 12:10:00,45.1,41.5,30.29,NW,307,1.0,6.0,87,0.00,,,0.10,Wunderground v.1.15,2013-11-22 18:10:00,
2013-11-22 12:14:00,45.1,41.8,30.29,NW,308,0.0,6.0,88,0.00,,---,0.10,VWS V14.01,2013-11-22 18:14:00,
2013-11-22 12:15:00,44.9,41.6,30.29,NW,308,2.0,6.0,88,0.00,,,0.10,Wunderground v.1.15,2013-11-22 18:15:00,
2013-11-22 12:19:00,44.8,41.5,30.30,WNW,303,2.0,6.0,88,0.00,,---,0.10,VWS V14.01,2013-11-22 18:19:00,
2013-11-22 12:20:00,44.8,41.5,30.30,WNW,303,2.0,2.0,88,0.00,,,0.10,Wunderground v.1.15,2013-11-22 18:20:00,
2013-11-22 12:24:00,44.6,41.6,30.29,NW,313,1.0,2.0,89,0.00,,---,0.10,VWS V14.01,2013-11-22 18:24:00,
2013-11-22 12:25:00,44.6,41.6,30.29,NW,313,2.0,2.0,89,0.00,,,0.10,Wunderground v.1.15,2013-11-22 18:25:00,
2013-11-22 12:29:00,44.6,41.6,30.29,NW,313,0.0,2.0,89,0.00,,---,0.10,VWS V14.01,2013-11-22 18:29:00,
2013-11-22 12:30:00,44.6,41.6,30.29,NW,310,1.0,3.0,89,0.00,,,0.10,Wunderground v.1.15,2013-11-22 18:30:00,
2013-11-22 12:34:00,44.6,41.6,30.29,NW,310,1.0,3.0,89,0.00,,---,0.10,VWS V14.01,2013-11-22 18:34:00,
2013-11-22 12:35:00,44.6,41.6,30.29,NW,310,1.0,3.0,89,0.00,,,0.10,Wunderground v.1.15,2013-11-22 18:35:00,
2013-11-22 12:39:00,44.8,41.8,30.29,NW,310,0.0,3.0,89,0.00,,---,0.10,VWS V14.01,2013-11-22 18:39:00,
2013-11-22 12:40:00,44.8,41.8,30.28,NW,311,1.0,1.0,89,0.00,,,0.10,Wunderground v.1.15,2013-11-22 18:40:00,
2013-11-22 12:44:00,44.8,41.8,30.29,NW,307,0.0,2.0,89,0.00,,---,0.10,VWS V14.01,2013-11-22 18:44:00,
2013-11-22 12:45:00,44.6,41.8,30.29,NW,307,0.0,1.0,90,0.00,,,0.10,Wunderground v.1.15,2013-11-22 18:45:00,
2013-11-22 12:50:00,44.6,41.8,30.28,NW,307,0.0,0.0,90,0.00,,---,0.10,VWS V14.01,2013-11-22 18:50:00,
2013-11-22 12:55:00,44.6,41.8,30.29,NW,307,1.0,1.0,90,0.00,,,0.10,Wunderground v.1.15,2013-11-22 18:55:00,
2013-11-22 13:00:00,44.6,41.8,30.28,NW,307,1.0,2.0,90,0.00,,,0.10,Wunderground v.1.15,2013-11-22 19:00:00,
2013-11-22 13:01:00,44.6,41.8,30.29,NW,307,2.0,2.0,90,0.00,,---,0.10,VWS V14.01,2013-11-22 19:01:00,
2013-11-22 13:05:00,44.6,41.8,30.30,NW,304,2.0,2.0,90,0.00,,,0.10,Wunderground v.1.15,2013-11-22 19:05:00,
2013-11-22 13:06:00,44.6,41.8,30.29,NW,304,1.0,3.0,90,0.00,,---,0.10,VWS V14.01,2013-11-22 19:06:00,
2013-11-22 13:10:00,44.6,41.8,30.29,NW,304,2.0,2.0,90,0.00,,,0.10,Wunderground v.1.15,2013-11-22 19:10:00,
2013-11-22 13:11:00,44.6,41.8,30.29,NW,304,0.0,3.0,90,0.00,,---,0.10,VWS V14.01,2013-11-22 19:11:00,
2013-11-22 13:15:00,44.6,41.8,30.29,NW,304,1.0,2.0,90,0.00,,,0.10,Wunderground v.1.15,2013-11-22 19:15:00,
2013-11-22 13:16:00,44.6,42.1,30.29,NW,304,0.0,3.0,91,0.00,,---,0.10,VWS V14.01,2013-11-22 19:16:00,
2013-11-22 13:21:00,44.6,42.1,30.29,NW,307,0.0,0.0,91,0.00,,---,0.10,VWS V14.01,2013-11-22 19:21:00,
2013-11-22 13:25:00,44.6,42.1,30.29,NW,306,1.0,5.0,91,0.00,,,0.10,Wunderground v.1.15,2013-11-22 19:25:00,
2013-11-22 13:26:00,44.6,42.1,30.29,West,276,3.0,5.0,91,0.00,,---,0.10,VWS V14.01,2013-11-22 19:26:00,
2013-11-22 13:30:00,44.5,41.7,30.29,West,260,2.0,2.0,90,0.00,,,0.10,Wunderground v.1.15,2013-11-22 19:30:00,
2013-11-22 13:31:00,44.5,41.8,30.29,WNW,294,6.0,6.0,90,0.00,,---,0.10,VWS V14.01,2013-11-22 19:31:00,
2013-11-22 13:35:00,44.3,41.6,30.29,WNW,291,3.0,3.0,90,0.00,,,0.10,Wunderground v.1.15,2013-11-22 19:35:00,
2013-11-22 13:37:00,44.2,41.5,30.29,WNW,291,0.0,6.0,90,0.00,,---,0.10,VWS V14.01,2013-11-22 19:37:00,
2013-11-22 13:40:00,44.2,41.5,30.28,WNW,290,2.0,2.0,90,0.00,,,0.10,Wunderground v.1.15,2013-11-22 19:40:00,
2013-11-22 13:42:00,44.2,41.5,30.28,WNW,290,1.0,1.0,90,0.00,,---,0.10,VWS V14.01,2013-11-22 19:42:00,
2013-11-22 13:45:00,44.2,41.5,30.28,WNW,289,1.0,2.0,90,0.00,,,0.10,Wunderground v.1.15,2013-11-22 19:45:00,
2013-11-22 13:47:00,44.2,41.7,30.28,WNW,291,1.0,3.0,91,0.00,,---,0.10,VWS V14.01,2013-11-22 19:47:00,
2013-11-22 13:50:00,44.2,41.7,30.28,WNW,297,2.0,3.0,91,0.00,,,0.10,Wunderground v.1.15,2013-11-22 19:50:00,
2013-11-22 13:52:00,44.2,41.7,30.27,WNW,282,0.0,3.0,91,0.00,,---,0.10,VWS V14.01,2013-11-22 19:52:00,
2013-11-22 13:57:00,44.3,41.8,30.27,WNW,284,0.0,3.0,91,0.00,,---,0.10,VWS V14.01,2013-11-22 19:57:00,
2013-11-22 14:00:00,44.3,41.8,30.27,WNW,294,0.0,2.0,91,0.00,,,0.10,Wunderground v.1.15,2013-11-22 20:00:00,
2013-11-22 14:02:00,44.3,41.8,30.28,West,280,3.0,3.0,91,0.00,,---,0.10,VWS V14.01,2013-11-22 20:02:00,
2013-11-22 14:05:00,44.3,41.8,30.28,West,280,1.0,2.0,91,0.00,,,0.10,Wunderground v.1.15,2013-11-22 20:05:00,
2013-11-22 14:07:00,44.3,41.8,30.28,West,280,2.0,3.0,91,0.00,,---,0.10,VWS V14.01,2013-11-22 20:07:00,
2013-11-22 14:10:00,44.3,41.8,30.28,West,276,1.0,1.0,91,0.00,,,0.10,Wunderground v.1.15,2013-11-22 20:10:00,
2013-11-22 14:12:00,44.3,41.8,30.28,West,276,0.0,0.0,91,0.00,,---,0.10,VWS V14.01,2013-11-22 20:12:00,
2013-11-22 14:15:00,44.3,41.8,30.28,West,272,2.0,2.0,91,0.00,,,0.10,Wunderground v.1.15,2013-11-22 20:15:00,
2013-11-22 14:18:00,44.2,41.7,30.28,West,272,0.0,3.0,91,0.00,,---,0.10,VWS V14.01,2013-11-22 20:18:00,
2013-11-22 14:20:00,44.3,41.8,30.27,WNW,289,2.0,3.0,91,0.00,,,0.10,Wunderground v.1.15,2013-11-22 20:20:00,
2013-11-22 14:23:00,44.3,41.8,30.27,WNW,287,3.0,3.0,91,0.00,,---,0.10,VWS V14.01,2013-11-22 20:23:00,
2013-11-22 14:25:00,44.3,41.8,30.27,WNW,283,2.0,3.0,91,0.00,,,0.10,Wunderground v.1.15,2013-11-22 20:25:00,
2013-11-22 14:28:00,44.3,41.8,30.27,WNW,283,0.0,3.0,91,0.00,,---,0.10,VWS V14.01,2013-11-22 20:28:00,
2013-11-22 14:30:00,44.3,42.1,30.27,WNW,283,2.0,2.0,92,0.00,,,0.10,Wunderground v.1.15,2013-11-22 20:30:00,
2013-11-22 14:33:00,44.5,42.3,30.28,WNW,283,3.0,3.0,92,0.00,,---,0.10,VWS V14.01,2013-11-22 20:33:00,
2013-11-22 14:35:00,44.3,42.1,30.28,WNW,290,2.0,2.0,92,0.00,,,0.10,Wunderground v.1.15,2013-11-22 20:35:00,
2013-11-22 14:38:00,44.3,42.1,30.28,WNW,287,1.0,3.0,92,0.00,,---,0.10,VWS V14.01,2013-11-22 20:38:00,
2013-11-22 14:40:00,44.3,42.1,30.28,WNW,284,2.0,3.0,92,0.00,,,0.10,Wunderground v.1.15,2013-11-22 20:40:00,
2013-11-22 14:43:00,44.2,42.0,30.28,WNW,296,0.0,3.0,92,0.00,,---,0.10,VWS V14.01,2013-11-22 20:43:00,
2013-11-22 14:45:00,44.2,42.0,30.28,WNW,296,1.0,3.0,92,0.00,,,0.10,Wunderground v.1.15,2013-11-22 20:45:00,
2013-11-22 14:48:00,44.2,42.0,30.28,WNW,293,5.0,6.0,92,0.00,,---,0.10,VWS V14.01,2013-11-22 20:48:00,
2013-11-22 14:50:00,44.2,42.0,30.28,WNW,291,1.0,1.0,92,0.00,,,0.10,Wunderground v.1.15,2013-11-22 20:50:00,
2013-11-22 14:53:00,44.3,42.4,30.28,WNW,287,3.0,3.0,93,0.00,,---,0.10,VWS V14.01,2013-11-22 20:53:00,
2013-11-22 14:55:00,44.3,42.4,30.28,WNW,289,2.0,2.0,93,0.00,,,0.10,Wunderground v.1.15,2013-11-22 20:55:00,
2013-11-22 14:59:00,44.3,42.4,30.27,WNW,289,0.0,3.0,93,0.00,,---,0.10,VWS V14.01,2013-11-22 20:59:00,
2013-11-22 15:00:00,44.3,42.4,30.27,WNW,289,1.0,1.0,93,0.00,,,0.10,Wunderground v.1.15,2013-11-22 21:00:00,
2013-11-22 15:04:00,44.5,42.6,30.28,WNW,289,2.0,2.0,93,0.02,,---,0.12,VWS V14.01,2013-11-22 21:04:00,
2013-11-22 15:05:00,44.5,42.6,30.28,WNW,289,0.0,1.0,93,0.14,,,0.12,Wunderground v.1.15,2013-11-22 21:05:00,
2013-11-22 15:09:00,44.5,42.6,30.28,North,355,0.0,2.0,93,0.03,,---,0.13,VWS V14.01,2013-11-22 21:09:00,
2013-11-22 15:14:00,44.6,42.7,30.28,NW,308,2.0,2.0,93,0.04,,---,0.14,VWS V14.01,2013-11-22 21:14:00,
2013-11-22 15:15:00,44.6,42.7,30.28,NW,308,1.0,2.0,93,0.21,,,0.15,Wunderground v.1.15,2013-11-22 21:15:00,
2013-11-22 15:19:00,44.6,43.0,30.28,NW,308,2.0,2.0,94,0.06,,---,0.16,VWS V14.01,2013-11-22 21:19:00,
2013-11-22 15:20:00,44.6,43.0,30.28,NW,308,1.0,3.0,94,0.14,,,0.16,Wunderground v.1.15,2013-11-22 21:20:00,
2013-11-22 15:25:00,44.8,43.2,30.29,NW,324,2.0,3.0,94,0.07,,---,0.17,VWS V14.01,2013-11-22 21:25:00,
2013-11-22 15:30:00,44.9,43.3,30.29,WNW,283,0.0,6.0,94,0.08,,---,0.18,VWS V14.01,2013-11-22 21:30:00,
2013-11-22 15:35:00,44.9,43.3,30.29,NW,325,0.0,5.0,94,0.09,,---,0.19,VWS V14.01,2013-11-22 21:35:00,
2013-11-22 15:40:00,44.9,43.3,30.29,NW,325,0.0,0.0,94,0.09,,---,0.19,VWS V14.01,2013-11-22 21:40:00,
2013-11-22 15:45:00,45.1,43.5,30.29,NNW,327,3.0,3.0,94,0.09,,---,0.19,VWS V14.01,2013-11-22 21:45:00,
2013-11-22 15:50:00,44.9,43.3,30.29,NW,320,1.0,1.0,94,0.10,,---,0.20,VWS V14.01,2013-11-22 21:50:00,
2013-11-22 15:55:00,44.5,42.9,30.29,West,262,2.0,6.0,94,0.05,,,0.20,Wunderground v.1.15,2013-11-22 21:55:00,
2013-11-22 16:00:00,43.9,42.3,30.29,WNW,282,2.0,3.0,94,0.04,,,0.20,Wunderground v.1.15,2013-11-22 22:00:00,
2013-11-22 16:05:00,43.8,42.2,30.30,WNW,289,2.0,3.0,94,0.00,,,0.20,Wunderground v.1.15,2013-11-22 22:05:00,
2013-11-22 16:10:00,43.5,42.2,30.30,WNW,290,2.0,2.0,95,0.00,,,0.20,Wunderground v.1.15,2013-11-22 22:10:00,
2013-11-22 16:15:00,43.3,42.0,30.30,WNW,290,1.0,2.0,95,0.00,,,0.20,Wunderground v.1.15,2013-11-22 22:15:00,
2013-11-22 16:16:00,43.3,42.0,30.30,West,280,5.0,5.0,95,0.07,,---,0.20,VWS V14.01,2013-11-22 22:16:00,
2013-11-22 16:20:00,43.3,42.0,30.30,WNW,284,2.0,2.0,95,0.00,,,0.20,Wunderground v.1.15,2013-11-22 22:20:00,
2013-11-22 16:21:00,43.3,42.0,30.30,WNW,284,1.0,1.0,95,0.04,,---,0.20,VWS V14.01,2013-11-22 22:21:00,
2013-11-22 16:25:00,43.2,41.9,30.30,West,269,3.0,3.0,95,0.00,,,0.21,Wunderground v.1.15,2013-11-22 22:25:00,
2013-11-22 16:26:00,43.2,41.9,30.31,West,269,2.0,5.0,95,0.05,,---,0.21,VWS V14.01,2013-11-22 22:26:00,
2013-11-22 16:30:00,43.1,41.8,30.31,West,259,3.0,3.0,95,0.10,,,0.22,Wunderground v.1.15,2013-11-22 22:30:00,
2013-11-22 16:31:00,43.1,41.8,30.30,West,259,1.0,2.0,95,0.04,,---,0.22,VWS V14.01,2013-11-22 22:31:00,
2013-11-22 16:35:00,43.1,42.0,30.30,West,276,3.0,3.0,96,0.28,,,0.24,Wunderground v.1.15,2013-11-22 22:35:00,
2013-11-22 16:36:00,43.1,42.0,30.30,West,276,0.0,3.0,96,0.06,,---,0.24,VWS V14.01,2013-11-22 22:36:00,
2013-11-22 16:40:00,43.1,42.0,30.30,West,277,1.0,2.0,96,0.78,,,0.24,Wunderground v.1.15,2013-11-22 22:40:00,
2013-11-22 16:41:00,43.1,42.0,30.30,West,277,2.0,2.0,96,0.05,,---,0.24,VWS V14.01,2013-11-22 22:41:00,
2013-11-22 16:45:00,42.9,41.8,30.30,NW,313,1.0,3.0,96,0.64,,,0.34,Wunderground v.1.15,2013-11-22 22:45:00,
2013-11-22 16:46:00,42.9,41.8,30.31,NW,313,2.0,3.0,96,0.15,,---,0.34,VWS V14.01,2013-11-22 22:46:00,
2013-11-22 16:50:00,42.9,41.8,30.31,WNW,297,2.0,2.0,96,0.87,,,0.36,Wunderground v.1.15,2013-11-22 22:50:00,
2013-11-22 16:51:00,42.9,41.8,30.31,WNW,297,1.0,1.0,96,0.16,,---,0.36,VWS V14.01,2013-11-22 22:51:00,
2013-11-22 16:55:00,42.9,41.8,30.31,West,265,2.0,5.0,96,0.87,,,0.36,Wunderground v.1.15,2013-11-22 22:55:00,
2013-11-22 16:57:00,42.9,41.8,30.31,West,265,5.0,5.0,96,0.16,,---,0.36,VWS V14.01,2013-11-22 22:57:00,
2013-11-22 17:00:00,42.9,41.8,30.30,West,265,5.0,5.0,96,0.87,,,0.36,Wunderground v.1.15,2013-11-22 23:00:00,
2013-11-22 17:02:00,42.9,41.8,30.31,WNW,286,1.0,5.0,96,0.31,,---,0.51,VWS V14.01,2013-11-22 23:02:00,
2013-11-22 17:05:00,42.9,41.8,30.31,WNW,286,0.0,5.0,96,0.87,,,0.51,Wunderground v.1.15,2013-11-22 23:05:00,
2013-11-22 17:07:00,42.9,41.8,30.31,WNW,286,0.0,5.0,96,0.31,,---,0.51,VWS V14.01,2013-11-22 23:07:00,
2013-11-22 17:10:00,42.9,41.8,30.31,WNW,287,1.0,1.0,96,0.87,,,0.51,Wunderground v.1.15,2013-11-22 23:10:00,
2013-11-22 17:12:00,42.3,41.2,30.31,WNW,296,1.0,1.0,96,0.31,,---,0.51,VWS V14.01,2013-11-22 23:12:00,
2013-11-22 17:15:00,42.3,41.2,30.31,WNW,294,3.0,3.0,96,0.87,,,0.51,Wunderground v.1.15,2013-11-22 23:15:00,
2013-11-22 17:17:00,42.3,41.2,30.32,WNW,293,3.0,3.0,96,0.31,,---,0.51,VWS V14.01,2013-11-22 23:17:00,
2013-11-22 17:20:00,42.3,41.2,30.32,NW,304,2.0,2.0,96,0.87,,,0.66,Wunderground v.1.15,2013-11-22 23:20:00,
2013-11-22 17:22:00,42.3,41.2,30.32,NW,304,2.0,2.0,96,0.46,,---,0.66,VWS V14.01,2013-11-22 23:22:00,
2013-11-22 17:25:00,42.3,41.2,30.32,WNW,296,1.0,2.0,96,0.87,,,0.66,Wunderground v.1.15,2013-11-22 23:25:00,
2013-11-22 17:27:00,42.3,41.2,30.32,WNW,296,1.0,2.0,96,0.46,,---,0.66,VWS V14.01,2013-11-22 23:27:00,
2013-11-22 17:30:00,42.3,41.2,30.32,WNW,296,1.0,1.0,96,0.87,,,0.66,Wunderground v.1.15,2013-11-22 23:30:00,
2013-11-22 17:32:00,42.3,41.2,30.32,WNW,301,1.0,1.0,96,0.44,,---,0.66,VWS V14.01,2013-11-22 23:32:00,
2013-11-22 17:35:00,42.3,41.2,30.31,WNW,301,1.0,1.0,96,0.87,,,0.66,Wunderground v.1.15,2013-11-22 23:35:00,
2013-11-22 17:37:00,41.5,40.5,30.31,NW,306,2.0,2.0,96,0.44,,---,0.66,VWS V14.01,2013-11-22 23:37:00,
2013-11-22 17:40:00,41.5,40.4,30.30,NW,308,0.0,0.0,96,0.87,,,0.66,Wunderground v.1.15,2013-11-22 23:40:00,
2013-11-22 17:42:00,41.5,40.5,30.30,NW,308,0.0,0.0,96,0.42,,---,0.66,VWS V14.01,2013-11-22 23:42:00,
2013-11-22 17:45:00,41.3,40.2,30.30,NNE,12,1.0,1.0,96,0.87,,,0.66,Wunderground v.1.15,2013-11-22 23:45:00,
2013-11-22 17:48:00,41.3,40.2,30.31,NNE,26,1.0,1.0,96,0.42,,---,0.66,VWS V14.01,2013-11-22 23:48:00,
2013-11-22 17:50:00,41.3,40.2,30.31,NNE,26,0.0,0.0,96,0.87,,,0.66,Wunderground v.1.15,2013-11-22 23:50:00,
2013-11-22 17:53:00,41.3,40.2,30.31,NNE,26,0.0,0.0,96,0.30,,---,0.66,VWS V14.01,2013-11-22 23:53:00,
2013-11-22 17:55:00,41.2,40.1,30.31,NNE,26,0.0,0.0,96,0.87,,,0.66,Wunderground v.1.15,2013-11-22 23:55:00,
2013-11-22 17:58:00,41.2,40.2,30.31,NNE,26,0.0,0.0,96,0.45,,---,0.81,VWS V14.01,2013-11-22 23:58:00,
2013-11-22 18:00:00,41.2,40.1,30.31,NNE,26,0.0,0.0,96,0.87,,,0.81,Wunderground v.1.15,2013-11-23 00:00:00,
2013-11-22 18:04:00,41.2,40.2,30.31,NNE,26,1.0,1.0,96,0.45,,---,0.81,VWS V14.01,2013-11-23 00:04:00,
2013-11-22 18:05:00,41.3,40.2,30.31,NNE,26,0.0,0.0,96,0.87,,,0.81,Wunderground v.1.15,2013-11-23 00:05:00,
2013-11-22 18:09:00,41.3,40.2,30.31,NNE,26,0.0,1.0,96,0.45,,---,0.81,VWS V14.01,2013-11-23 00:09:00,
2013-11-22 18:10:00,41.3,40.2,30.31,NNE,26,0.0,0.0,96,0.87,,,0.81,Wunderground v.1.15,2013-11-23 00:10:00,
2013-11-22 18:14:00,41.3,40.2,30.31,NNE,26,0.0,0.0,96,0.30,,---,0.81,VWS V14.01,2013-11-23 00:14:00,
2013-11-22 18:15:00,41.3,40.2,30.31,NNE,26,0.0,0.0,96,0.87,,,0.81,Wunderground v.1.15,2013-11-23 00:15:00,
2013-11-22 18:19:00,41.3,40.2,30.31,NNE,26,3.0,3.0,96,0.30,,---,0.81,VWS V14.01,2013-11-23 00:19:00,
2013-11-22 18:20:00,41.3,40.2,30.31,NNE,26,1.0,1.0,96,0.05,,,0.81,Wunderground v.1.15,2013-11-23 00:20:00,
2013-11-22 18:25:00,41.3,40.2,30.32,North,11,0.0,1.0,96,0.15,,---,0.81,VWS V14.01,2013-11-23 00:25:00,
2013-11-22 18:30:00,41.5,40.5,30.32,North,11,0.0,0.0,96,0.15,,---,0.81,VWS V14.01,2013-11-23 00:30:00,
2013-11-22 18:35:00,41.5,40.4,30.31,North,9,3.0,6.0,96,0.04,,,0.86,Wunderground v.1.15,2013-11-23 00:35:00,
2013-11-22 18:40:00,41.5,40.4,30.31,North,1,5.0,7.0,96,0.04,,,0.86,Wunderground v.1.15,2013-11-23 00:40:00,
2013-11-22 18:45:00,41.5,40.4,30.31,NNE,25,4.0,7.0,96,0.00,,,0.86,Wunderground v.1.15,2013-11-23 00:45:00,
2013-11-22 18:50:00,41.5,40.4,30.32,NNE,13,3.0,3.0,96,0.00,,,0.86,Wunderground v.1.15,2013-11-23 00:50:00,
2013-11-22 18:55:00,41.5,40.4,30.32,North,11,4.0,4.0,96,0.00,,,0.86,Wunderground v.1.15,2013-11-23 00:55:00,
2013-11-22 19:00:00,41.3,40.2,30.33,NNE,23,3.0,6.0,96,0.31,,,0.90,Wunderground v.1.15,2013-11-23 01:00:00,
2013-11-22 19:01:00,41.3,40.2,30.33,NNE,19,3.0,6.0,96,0.09,,---,0.90,VWS V14.01,2013-11-23 01:01:00,
2013-11-22 19:06:00,41.3,40.2,30.33,NNE,18,0.0,6.0,96,0.10,,---,0.91,VWS V14.01,2013-11-23 01:06:00,
2013-11-22 19:10:00,41.3,40.2,30.33,NNE,16,3.0,3.0,96,0.09,,,0.92,Wunderground v.1.15,2013-11-23 01:10:00,
2013-11-22 19:11:00,41.3,40.2,30.33,NNE,16,1.0,2.0,96,0.11,,---,0.92,VWS V14.01,2013-11-23 01:11:00,
2013-11-22 19:15:00,41.2,40.1,30.33,NNE,22,2.0,3.0,96,0.09,,,0.93,Wunderground v.1.15,2013-11-23 01:15:00,
2013-11-22 19:16:00,41.2,40.2,30.33,NNE,22,5.0,5.0,96,0.12,,---,0.93,VWS V14.01,2013-11-23 01:16:00,
2013-11-22 19:20:00,41.2,40.1,30.33,NNE,22,1.0,2.0,96,0.09,,,0.93,Wunderground v.1.15,2013-11-23 01:20:00,
2013-11-22 19:21:00,41.2,40.2,30.33,NNE,22,2.0,2.0,96,0.12,,---,0.93,VWS V14.01,2013-11-23 01:21:00,
2013-11-22 19:25:00,41.2,40.1,30.33,NNE,16,2.0,2.0,96,0.06,,,0.93,Wunderground v.1.15,2013-11-23 01:25:00,
2013-11-22 19:26:00,41.2,40.2,30.33,NNE,16,0.0,11.0,96,0.12,,---,0.93,VWS V14.01,2013-11-23 01:26:00,
2013-11-22 19:30:00,41.2,40.1,30.33,NNE,16,1.0,1.0,96,0.05,,,0.94,Wunderground v.1.15,2013-11-23 01:30:00,
2013-11-22 19:31:00,41.2,40.2,30.33,NNE,16,0.0,0.0,96,0.13,,---,0.94,VWS V14.01,2013-11-23 01:31:00,
2013-11-22 19:35:00,41.2,40.1,30.34,NE,37,0.0,1.0,96,0.05,,,0.94,Wunderground v.1.15,2013-11-23 01:35:00,
2013-11-22 19:36:00,41.2,40.2,30.34,NE,36,0.0,2.0,96,0.13,,---,0.94,VWS V14.01,2013-11-23 01:36:00,
2013-11-22 19:40:00,41.3,40.2,30.34,NE,36,1.0,1.0,96,0.05,,,0.94,Wunderground v.1.15,2013-11-23 01:40:00,
2013-11-22 19:42:00,41.3,40.2,30.34,NE,36,2.0,2.0,96,0.08,,---,0.94,VWS V14.01,2013-11-23 01:42:00,
2013-11-22 19:45:00,41.3,40.2,30.34,NE,36,1.0,1.0,96,0.05,,,0.95,Wunderground v.1.15,2013-11-23 01:45:00,
2013-11-22 19:47:00,41.3,40.2,30.34,NE,36,0.0,2.0,96,0.09,,---,0.95,VWS V14.01,2013-11-23 01:47:00,
2013-11-22 19:50:00,41.3,40.2,30.34,NE,36,1.0,1.0,96,0.05,,,0.95,Wunderground v.1.15,2013-11-23 01:50:00,
2013-11-22 19:53:00,41.3,40.2,30.34,NE,36,0.0,1.0,96,0.09,,---,0.95,VWS V14.01,2013-11-23 01:53:00,
2013-11-22 19:55:00,41.5,40.4,30.34,NE,36,0.0,1.0,96,0.04,,,0.95,Wunderground v.1.15,2013-11-23 01:55:00,
2013-11-22 19:58:00,41.5,40.5,30.34,NE,36,0.0,5.0,96,0.10,,---,0.96,VWS V14.01,2013-11-23 01:58:00,
2013-11-22 20:00:00,41.5,40.4,30.34,NE,36,0.0,0.0,96,0.04,,,0.96,Wunderground v.1.15,2013-11-23 02:00:00,
2013-11-22 20:03:00,41.5,40.5,30.34,NE,36,0.0,0.0,96,0.06,,---,0.96,VWS V14.01,2013-11-23 02:03:00,
2013-11-22 20:05:00,41.5,40.4,30.34,WNW,290,1.0,3.0,96,0.09,,,0.97,Wunderground v.1.15,2013-11-23 02:05:00,
2013-11-22 20:09:00,41.2,40.2,30.35,WNW,286,2.0,5.0,96,0.07,,---,0.97,VWS V14.01,2013-11-23 02:09:00,
2013-11-22 20:10:00,41.2,40.1,30.35,WNW,286,2.0,2.0,96,0.08,,,0.97,Wunderground v.1.15,2013-11-23 02:10:00,
2013-11-22 20:15:00,40.9,39.8,30.34,WNW,283,3.0,3.0,96,0.06,,---,0.98,VWS V14.01,2013-11-23 02:15:00,
2013-11-22 20:20:00,40.8,39.8,30.35,WNW,283,1.0,2.0,96,0.06,,---,0.99,VWS V14.01,2013-11-23 02:20:00,
2013-11-22 20:25:00,40.8,39.7,30.35,WNW,283,2.0,2.0,96,0.07,,,0.99,Wunderground v.1.15,2013-11-23 02:25:00,
2013-11-22 20:30:00,40.8,39.7,30.35,WNW,283,1.0,2.0,96,0.13,,,1.00,Wunderground v.1.15,2013-11-23 02:30:00,
2013-11-22 20:35:00,40.6,39.5,30.35,WNW,283,2.0,3.0,96,0.12,,,1.01,Wunderground v.1.15,2013-11-23 02:35:00,
2013-11-22 20:40:00,40.6,39.8,30.36,WNW,283,2.0,2.0,97,0.19,,,1.03,Wunderground v.1.15,2013-11-23 02:40:00,
2013-11-22 20:45:00,40.6,39.8,30.36,WNW,283,2.0,2.0,97,0.10,,,1.03,Wunderground v.1.15,2013-11-23 02:45:00,
2013-11-22 20:50:00,40.5,39.7,30.37,WNW,283,2.0,3.0,97,0.10,,,1.04,Wunderground v.1.15,2013-11-23 02:50:00,
2013-11-22 20:51:00,40.5,39.7,30.37,WNW,283,3.0,5.0,97,0.09,,---,1.04,VWS V14.01,2013-11-23 02:51:00,
2013-11-22 20:55:00,40.5,39.7,30.37,WNW,283,2.0,3.0,97,0.10,,,1.05,Wunderground v.1.15,2013-11-23 02:55:00,
2013-11-22 20:56:00,40.5,39.7,30.37,WNW,283,1.0,5.0,97,0.10,,---,1.05,VWS V14.01,2013-11-23 02:56:00,
2013-11-22 21:00:00,40.5,39.7,30.36,WNW,283,2.0,2.0,97,0.07,,,1.05,Wunderground v.1.15,2013-11-23 03:00:00,
2013-11-22 21:01:00,40.5,39.7,30.37,WNW,283,0.0,1.0,97,0.09,,---,1.05,VWS V14.01,2013-11-23 03:01:00,
2013-11-22 21:05:00,40.5,39.7,30.37,WNW,282,1.0,3.0,97,0.06,,,1.06,Wunderground v.1.15,2013-11-23 03:05:00,
2013-11-22 21:06:00,40.5,39.7,30.37,WNW,282,1.0,3.0,97,0.10,,---,1.06,VWS V14.01,2013-11-23 03:06:00,
2013-11-22 21:11:00,40.5,39.7,30.36,WNW,282,0.0,1.0,97,0.09,,---,1.06,VWS V14.01,2013-11-23 03:11:00,
2013-11-22 21:15:00,40.5,39.7,30.36,WNW,282,1.0,2.0,97,0.06,,,1.07,Wunderground v.1.15,2013-11-23 03:15:00,
2013-11-22 21:16:00,40.6,39.8,30.36,WNW,282,1.0,2.0,97,0.10,,---,1.07,VWS V14.01,2013-11-23 03:16:00,
2013-11-22 21:20:00,40.6,39.8,30.36,WNW,282,0.0,0.0,97,0.06,,,1.07,Wunderground v.1.15,2013-11-23 03:20:00,
2013-11-22 21:21:00,40.6,39.8,30.36,WNW,282,0.0,0.0,97,0.08,,---,1.07,VWS V14.01,2013-11-23 03:21:00,
2013-11-22 21:25:00,40.6,39.8,30.36,WNW,282,0.0,0.0,97,0.04,,,1.07,Wunderground v.1.15,2013-11-23 03:25:00,
2013-11-22 21:26:00,40.6,39.8,30.36,WNW,282,1.0,2.0,97,0.08,,---,1.07,VWS V14.01,2013-11-23 03:26:00,
2013-11-22 21:30:00,40.6,39.8,30.37,WNW,282,0.0,0.0,97,0.00,,,1.07,Wunderground v.1.15,2013-11-23 03:30:00,
2013-11-22 21:31:00,40.6,39.8,30.37,WNW,282,0.0,0.0,97,0.07,,---,1.07,VWS V14.01,2013-11-23 03:31:00,
2013-11-22 21:35:00,40.6,39.8,30.36,WNW,282,0.0,0.0,97,0.00,,,1.09,Wunderground v.1.15,2013-11-23 03:35:00,
2013-11-22 21:36:00,40.6,39.8,30.36,WNW,282,0.0,0.0,97,0.09,,---,1.09,VWS V14.01,2013-11-23 03:36:00,
2013-11-22 21:41:00,40.6,39.8,30.36,WNW,282,0.0,0.0,97,0.09,,---,1.12,VWS V14.01,2013-11-23 03:41:00,
2013-11-22 21:45:00,40.6,39.8,30.36,WNW,282,0.0,0.0,97,0.29,,,1.13,Wunderground v.1.15,2013-11-23 03:45:00,
2013-11-22 21:46:00,40.6,39.8,30.36,WNW,282,0.0,0.0,97,0.11,,---,1.14,VWS V14.01,2013-11-23 03:46:00,
2013-11-22 21:50:00,40.6,39.8,30.37,WNW,282,0.0,0.0,97,0.49,,,1.19,Wunderground v.1.15,2013-11-23 03:50:00,
2013-11-22 21:52:00,40.6,39.8,30.37,WNW,282,0.0,2.0,97,0.15,,---,1.19,VWS V14.01,2013-11-23 03:52:00,
2013-11-22 21:55:00,40.6,39.8,30.37,WNW,282,1.0,1.0,97,0.49,,,1.25,Wunderground v.1.15,2013-11-23 03:55:00,
2013-11-22 21:57:00,40.6,39.8,30.37,WNW,282,0.0,2.0,97,0.21,,---,1.25,VWS V14.01,2013-11-23 03:57:00,
2013-11-22 22:00:00,40.6,39.8,30.37,WNW,282,1.0,1.0,97,0.23,,,1.28,Wunderground v.1.15,2013-11-23 04:00:00,
2013-11-22 22:02:00,40.6,39.8,30.37,WNW,282,1.0,2.0,97,0.23,,---,1.28,VWS V14.01,2013-11-23 04:02:00,
2013-11-22 22:05:00,40.6,39.8,30.37,WNW,282,1.0,1.0,97,0.17,,,1.29,Wunderground v.1.15,2013-11-23 04:05:00,
2013-11-22 22:07:00,40.8,40.0,30.37,WNW,282,0.0,2.0,97,0.25,,---,1.30,VWS V14.01,2013-11-23 04:07:00,
2013-11-22 22:10:00,40.8,40.0,30.37,WNW,282,0.0,0.0,97,0.11,,,1.30,Wunderground v.1.15,2013-11-23 04:10:00,
2013-11-22 22:12:00,40.8,40.0,30.36,WNW,282,0.0,1.0,97,0.25,,---,1.31,VWS V14.01,2013-11-23 04:12:00,
2013-11-22 22:15:00,40.9,40.1,30.36,WNW,282,0.0,0.0,97,0.11,,,1.31,Wunderground v.1.15,2013-11-23 04:15:00,
2013-11-22 22:17:00,40.9,40.1,30.36,WNW,282,0.0,1.0,97,0.27,,---,1.33,VWS V14.01,2013-11-23 04:17:00,
2013-11-22 22:20:00,41.1,40.3,30.36,WNW,282,0.0,0.0,97,0.25,,,1.33,Wunderground v.1.15,2013-11-23 04:20:00,
2013-11-22 22:23:00,41.1,40.3,30.36,WNW,282,1.0,1.0,97,0.28,,---,1.35,VWS V14.01,2013-11-23 04:23:00,
2013-11-22 22:25:00,41.1,40.3,30.36,WNW,283,0.0,0.0,97,0.21,,,1.35,Wunderground v.1.15,2013-11-23 04:25:00,
2013-11-22 22:28:00,41.1,40.3,30.36,WNW,283,0.0,1.0,97,0.28,,---,1.35,VWS V14.01,2013-11-23 04:28:00,
2013-11-22 22:30:00,41.1,40.3,30.36,WNW,283,0.0,0.0,97,0.08,,,1.35,Wunderground v.1.15,2013-11-23 04:30:00,
2013-11-22 22:33:00,41.2,40.4,30.36,WNW,283,0.0,1.0,97,0.29,,---,1.36,VWS V14.01,2013-11-23 04:33:00,
2013-11-22 22:35:00,41.2,40.4,30.36,WNW,283,0.0,0.0,97,0.07,,,1.36,Wunderground v.1.15,2013-11-23 04:35:00,
2013-11-22 22:38:00,41.2,40.4,30.36,WNW,283,0.0,1.0,97,0.29,,---,1.36,VWS V14.01,2013-11-23 04:38:00,
2013-11-22 22:40:00,41.2,40.4,30.36,WNW,283,0.0,0.0,97,0.10,,,1.36,Wunderground v.1.15,2013-11-23 04:40:00,
2013-11-22 22:43:00,41.3,40.5,30.36,WNW,283,0.0,0.0,97,0.27,,---,1.37,VWS V14.01,2013-11-23 04:43:00,
2013-11-22 22:45:00,41.3,40.5,30.36,WNW,283,0.0,0.0,97,0.09,,,1.37,Wunderground v.1.15,2013-11-23 04:45:00,
2013-11-22 22:49:00,41.5,40.7,30.37,WNW,283,0.0,0.0,97,0.27,,---,1.37,VWS V14.01,2013-11-23 04:49:00,
2013-11-22 22:50:00,41.5,40.7,30.37,WNW,283,0.0,0.0,97,0.05,,,1.38,Wunderground v.1.15,2013-11-23 04:50:00,
2013-11-22 22:54:00,41.5,40.7,30.37,WNW,283,1.0,2.0,97,0.21,,---,1.38,VWS V14.01,2013-11-23 04:54:00,
2013-11-22 22:55:00,41.5,40.7,30.37,WNW,282,0.0,1.0,97,0.05,,,1.38,Wunderground v.1.15,2013-11-23 04:55:00,
2013-11-22 22:59:00,41.6,40.8,30.37,WNW,282,0.0,2.0,97,0.21,,---,1.38,VWS V14.01,2013-11-23 04:59:00,
2013-11-22 23:00:00,41.6,40.8,30.37,WNW,282,0.0,0.0,97,0.05,,,1.38,Wunderground v.1.15,2013-11-23 05:00:00,
2013-11-22 23:01:00,41.6,40.8,30.37,WNW,282,1.0,1.0,97,0.10,,---,1.38,VWS V14.01,2013-11-23 05:01:00,
2013-11-22 23:02:00,41.6,40.8,30.37,WNW,282,0.0,1.0,97,0.11,,---,1.39,VWS V14.01,2013-11-23 05:02:00,
2013-11-22 23:05:00,41.6,40.8,30.37,WNW,282,0.0,1.0,97,0.05,,,1.39,Wunderground v.1.15,2013-11-23 05:05:00,
2013-11-22 23:07:00,41.6,40.8,30.37,WNW,282,1.0,2.0,97,0.12,,---,1.40,VWS V14.01,2013-11-23 05:07:00,
2013-11-22 23:10:00,41.6,40.8,30.37,WNW,283,1.0,1.0,97,0.12,,,1.40,Wunderground v.1.15,2013-11-23 05:10:00,
2013-11-22 23:13:00,41.6,40.8,30.37,WNW,283,0.0,2.0,97,0.10,,---,1.40,VWS V14.01,2013-11-23 05:13:00,
2013-11-22 23:15:00,41.6,40.8,30.37,WNW,283,1.0,1.0,97,0.09,,,1.41,Wunderground v.1.15,2013-11-23 05:15:00,
2013-11-22 23:18:00,41.6,40.8,30.38,WNW,283,0.0,2.0,97,0.11,,---,1.41,VWS V14.01,2013-11-23 05:18:00,
2013-11-22 23:23:00,41.6,40.8,30.37,WNW,283,0.0,1.0,97,0.08,,---,1.41,VWS V14.01,2013-11-23 05:23:00,
2013-11-22 23:25:00,41.6,40.8,30.37,WNW,283,1.0,1.0,97,0.05,,,1.41,Wunderground v.1.15,2013-11-23 05:25:00,
2013-11-22 23:30:00,41.6,40.8,30.38,NNW,339,0.0,0.0,97,0.07,,---,1.42,VWS V14.01,2013-11-23 05:30:00,
2013-11-22 23:35:00,41.6,40.8,30.38,North,356,1.0,5.0,97,0.05,,,1.42,Wunderground v.1.15,2013-11-23 05:35:00,
2013-11-22 23:40:00,41.6,40.8,30.38,North,356,1.0,2.0,97,0.04,,,1.42,Wunderground v.1.15,2013-11-23 05:40:00,
2013-11-22 23:45:00,41.6,40.8,30.38,North,356,1.0,2.0,97,0.00,,,1.42,Wunderground v.1.15,2013-11-23 05:45:00,
2013-11-22 23:50:00,41.6,40.8,30.38,North,356,0.0,0.0,97,0.00,,,1.42,Wunderground v.1.15,2013-11-23 05:50:00,
2013-11-22 23:55:00,41.6,40.8,30.38,North,356,0.0,0.0,97,0.00,,,1.42,Wunderground v.1.15,2013-11-23 05:55:00,